sensor_id;sensor_type;location;lat;lon;timestamp;pressure;altitude;pressure_sealevel;temperature;humidity
5350;BME280;2697;42.144;24.794;2024-01-25T00:00:51;147785.59;;;2.40;100.00
5350;BME280;2697;42.144;24.794;2024-01-25T00:03:16;146967.66;;;2.37;100.00
5350;BME280;2697;42.144;24.794;2024-01-25T00:05:41;145330.69;;;2.34;100.00
5350;BME280;2697;42.144;24.794;2024-01-25T00:08:07;141596.03;;;2.30;100.00
5350;BME280;2697;42.144;24.794;2024-01-25T00:10:32;142941.53;;;2.29;100.00
5350;BME280;2697;42.144;24.794;2024-01-25T00:12:58;145912.00;;;2.30;100.00
5350;BME280;2697;42.144;24.794;2024-01-25T00:15:23;143884.06;;;2.15;100.00
5350;BME280;2697;42.144;24.794;2024-01-25T00:17:48;139531.66;;;1.95;100.00
5350;BME280;2697;42.144;24.794;2024-01-25T00:20:14;134401.44;;;1.91;100.00
5350;BME280;2697;42.144;24.794;2024-01-25T00:22:39;130328.53;;;1.76;100.00
5350;BME280;2697;42.144;24.794;2024-01-25T00:25:05;128998.34;;;1.69;100.00
5350;BME280;2697;42.144;24.794;2024-01-25T00:27:31;127222.91;;;1.64;100.00
5350;BME280;2697;42.144;24.794;2024-01-25T00:29:56;123300.06;;;1.57;100.00
5350;BME280;2697;42.144;24.794;2024-01-25T00:32:22;121524.31;;;1.60;100.00
5350;BME280;2697;42.144;24.794;2024-01-25T00:34:47;121764.22;;;1.46;100.00
5350;BME280;2697;42.144;24.794;2024-01-25T00:37:13;117617.84;;;1.58;100.00
5350;BME280;2697;42.144;24.794;2024-01-25T00:39:39;127236.81;;;1.95;100.00
5350;BME280;2697;42.144;24.794;2024-01-25T00:42:05;131452.91;;;1.94;100.00
5350;BME280;2697;42.144;24.794;2024-01-25T00:44:32;134092.84;;;2.09;100.00
5350;BME280;2697;42.144;24.794;2024-01-25T00:46:58;140505.81;;;2.00;100.00
5350;BME280;2697;42.144;24.794;2024-01-25T00:49:23;137454.59;;;1.89;100.00
5350;BME280;2697;42.144;24.794;2024-01-25T00:51:49;136830.06;;;2.33;100.00
5350;BME280;2697;42.144;24.794;2024-01-25T00:54:15;147622.47;;;2.20;100.00
5350;BME280;2697;42.144;24.794;2024-01-25T00:56:41;149623.19;;;2.49;100.00
5350;BME280;2697;42.144;24.794;2024-01-25T00:59:07;153229.34;;;2.57;100.00
5350;BME280;2697;42.144;24.794;2024-01-25T01:01:33;153282.94;;;2.78;100.00
5350;BME280;2697;42.144;24.794;2024-01-25T01:03:58;153269.91;;;2.73;100.00
5350;BME280;2697;42.144;24.794;2024-01-25T01:06:25;153294.75;;;2.82;100.00
5350;BME280;2697;42.144;24.794;2024-01-25T01:08:50;153370.63;;;3.12;100.00
5350;BME280;2697;42.144;24.794;2024-01-25T01:11:16;153453.06;;;3.44;100.00
5350;BME280;2697;42.144;24.794;2024-01-25T01:13:42;153455.72;;;3.45;100.00
5350;BME280;2697;42.144;24.794;2024-01-25T01:16:07;153581.41;;;3.94;100.00
5350;BME280;2697;42.144;24.794;2024-01-25T01:18:33;153678.31;;;4.32;100.00
5350;BME280;2697;42.144;24.794;2024-01-25T01:20:58;153775.25;;;4.69;100.00
5350;BME280;2697;42.144;24.794;2024-01-25T01:23:23;153839.50;;;4.94;100.00
5350;BME280;2697;42.144;24.794;2024-01-25T01:25:49;153996.78;;;5.55;100.00
5350;BME280;2697;42.144;24.794;2024-01-25T01:28:14;154079.44;;;5.87;100.00
5350;BME280;2697;42.144;24.794;2024-01-25T01:30:40;154219.81;;;6.42;100.00
5350;BME280;2697;42.144;24.794;2024-01-25T01:33:08;154339.28;;;6.88;99.29
5350;BME280;2697;42.144;24.794;2024-01-25T01:35:33;154404.94;;;7.13;94.74
5350;BME280;2697;42.144;24.794;2024-01-25T01:37:59;154454.84;;;7.33;90.45
5350;BME280;2697;42.144;24.794;2024-01-25T01:40:24;154500.81;;;7.51;87.54
5350;BME280;2697;42.144;24.794;2024-01-25T01:42:50;154571.75;;;7.78;83.69
5350;BME280;2697;42.144;24.794;2024-01-25T01:45:15;154586.22;;;7.84;81.12
5350;BME280;2697;42.144;24.794;2024-01-25T01:47:41;154583.59;;;7.83;79.30
5350;BME280;2697;42.144;24.794;2024-01-25T01:50:07;154628.22;;;8.00;76.89
5350;BME280;2697;42.144;24.794;2024-01-25T01:52:33;154636.13;;;8.03;75.55
5350;BME280;2697;42.144;24.794;2024-01-25T01:54:59;154646.63;;;8.07;75.08
5350;BME280;2697;42.144;24.794;2024-01-25T01:57:24;154683.44;;;8.21;73.90
5350;BME280;2697;42.144;24.794;2024-01-25T01:59:50;154668.97;;;8.16;73.91
5350;BME280;2697;42.144;24.794;2024-01-25T02:02:16;154691.31;;;8.24;73.26
5350;BME280;2697;42.144;24.794;2024-01-25T02:04:43;154701.84;;;8.28;72.77
5350;BME280;2697;42.144;24.794;2024-01-25T02:07:08;154726.88;;;8.38;72.20
5350;BME280;2697;42.144;24.794;2024-01-25T02:09:35;154732.13;;;8.40;70.71
5350;BME280;2697;42.144;24.794;2024-01-25T02:12:02;154743.94;;;8.45;70.96
5350;BME280;2697;42.144;24.794;2024-01-25T02:14:27;154742.63;;;8.44;71.51
5350;BME280;2697;42.144;24.794;2024-01-25T02:16:53;154728.19;;;8.39;71.77
5350;BME280;2697;42.144;24.794;2024-01-25T02:19:18;154789.94;;;8.63;71.62
5350;BME280;2697;42.144;24.794;2024-01-25T02:21:44;154812.31;;;8.71;71.93
5350;BME280;2697;42.144;24.794;2024-01-25T02:24:09;154804.44;;;8.68;72.20
5350;BME280;2697;42.144;24.794;2024-01-25T02:26:35;154830.72;;;8.78;72.00
5350;BME280;2697;42.144;24.794;2024-01-25T02:29:00;154841.22;;;8.82;72.60
5350;BME280;2697;42.144;24.794;2024-01-25T02:31:26;154878.06;;;8.97;72.49
5350;BME280;2697;42.144;24.794;2024-01-25T02:33:51;154904.34;;;9.07;72.79
5350;BME280;2697;42.144;24.794;2024-01-25T02:36:16;154908.28;;;9.08;73.51
5350;BME280;2697;42.144;24.794;2024-01-25T02:38:42;154899.09;;;9.05;73.35
5350;BME280;2697;42.144;24.794;2024-01-25T02:41:07;154912.22;;;9.10;74.96
5350;BME280;2697;42.144;24.794;2024-01-25T02:43:33;154970.13;;;9.32;74.26
5350;BME280;2697;42.144;24.794;2024-01-25T02:45:58;154979.31;;;9.36;74.68
5350;BME280;2697;42.144;24.794;2024-01-25T02:48:23;155012.19;;;9.49;75.05
5350;BME280;2697;42.144;24.794;2024-01-25T02:50:49;155014.88;;;9.50;75.28
5350;BME280;2697;42.144;24.794;2024-01-25T02:53:14;155010.88;;;9.48;76.12
5350;BME280;2697;42.144;24.794;2024-01-25T02:55:39;155001.69;;;9.45;76.91
5350;BME280;2697;42.144;24.794;2024-01-25T02:58:05;155059.56;;;9.67;76.18
5350;BME280;2697;42.144;24.794;2024-01-25T03:00:30;155084.56;;;9.77;76.27
5350;BME280;2697;42.144;24.794;2024-01-25T03:02:56;155099.06;;;9.82;75.53
5350;BME280;2697;42.144;24.794;2024-01-25T03:05:21;155112.25;;;9.87;76.05
5350;BME280;2697;42.144;24.794;2024-01-25T03:07:47;155096.44;;;9.81;75.91
5350;BME280;2697;42.144;24.794;2024-01-25T03:10:12;155101.69;;;9.83;76.53
5350;BME280;2697;42.144;24.794;2024-01-25T03:12:38;155151.69;;;10.03;75.75
5350;BME280;2697;42.144;24.794;2024-01-25T03:15:04;155154.31;;;10.04;76.42
5350;BME280;2697;42.144;24.794;2024-01-25T03:17:29;155164.88;;;10.08;76.60
5350;BME280;2697;42.144;24.794;2024-01-25T03:19:55;155207.06;;;10.24;76.89
5350;BME280;2697;42.144;24.794;2024-01-25T03:22:20;155217.56;;;10.28;77.66
5350;BME280;2697;42.144;24.794;2024-01-25T03:24:47;155239.94;;;10.37;77.41
5350;BME280;2697;42.144;24.794;2024-01-25T03:27:13;155218.88;;;10.28;78.25
5350;BME280;2697;42.144;24.794;2024-01-25T03:29:42;155246.53;;;10.39;78.32
5350;BME280;2697;42.144;24.794;2024-01-25T03:32:09;155220.19;;;10.29;79.20
5350;BME280;2697;42.144;24.794;2024-01-25T03:34:35;155238.63;;;10.36;78.77
5350;BME280;2697;42.144;24.794;2024-01-25T03:37:00;155195.13;;;10.19;79.27
5350;BME280;2697;42.144;24.794;2024-01-25T03:39:25;155105.63;;;9.85;81.04
5350;BME280;2697;42.144;24.794;2024-01-25T03:41:51;155114.88;;;9.88;80.95
5350;BME280;2697;42.144;24.794;2024-01-25T03:44:16;155078.00;;;9.74;80.71
5350;BME280;2697;42.144;24.794;2024-01-25T03:46:41;155043.81;;;9.61;79.67
5350;BME280;2697;42.144;24.794;2024-01-25T03:49:07;155016.19;;;9.50;79.76
5350;BME280;2697;42.144;24.794;2024-01-25T03:51:32;154980.63;;;9.36;80.89
5350;BME280;2697;42.144;24.794;2024-01-25T03:53:57;154988.50;;;9.39;80.15
5350;BME280;2697;42.144;24.794;2024-01-25T03:56:23;154985.88;;;9.38;80.02
5350;BME280;2697;42.144;24.794;2024-01-25T03:58:49;154967.50;;;9.31;80.51
5350;BME280;2697;42.144;24.794;2024-01-25T04:01:14;154993.81;;;9.41;79.57
5350;BME280;2697;42.144;24.794;2024-01-25T04:03:40;155067.50;;;9.70;79.07
5350;BME280;2697;42.144;24.794;2024-01-25T04:06:06;155093.81;;;9.80;78.84
5350;BME280;2697;42.144;24.794;2024-01-25T04:08:31;155129.31;;;9.94;77.77
5350;BME280;2697;42.144;24.794;2024-01-25T04:10:57;155146.44;;;10.00;77.66
5350;BME280;2697;42.144;24.794;2024-01-25T04:13:22;155122.75;;;9.91;78.28
5350;BME280;2697;42.144;24.794;2024-01-25T04:15:48;155151.69;;;10.03;77.82
5350;BME280;2697;42.144;24.794;2024-01-25T04:18:13;155185.94;;;10.16;77.85
5350;BME280;2697;42.144;24.794;2024-01-25T04:20:39;155275.47;;;10.50;76.60
5350;BME280;2697;42.144;24.794;2024-01-25T04:23:05;155257.09;;;10.43;75.40
5350;BME280;2697;42.144;24.794;2024-01-25T04:25:30;155325.50;;;10.70;75.26
5350;BME280;2697;42.144;24.794;2024-01-25T04:27:55;155374.25;;;10.89;74.34
5350;BME280;2697;42.144;24.794;2024-01-25T04:30:21;155378.22;;;10.90;74.26
5350;BME280;2697;42.144;24.794;2024-01-25T04:32:47;155357.16;;;10.82;73.92
5350;BME280;2697;42.144;24.794;2024-01-25T04:35:12;155375.59;;;10.89;73.56
5350;BME280;2697;42.144;24.794;2024-01-25T04:37:37;155362.41;;;10.84;73.90
5350;BME280;2697;42.144;24.794;2024-01-25T04:40:03;155304.47;;;10.62;75.18
5350;BME280;2697;42.144;24.794;2024-01-25T04:42:30;155296.56;;;10.59;75.54
5350;BME280;2697;42.144;24.794;2024-01-25T04:44:55;155283.41;;;10.53;76.12
5350;BME280;2697;42.144;24.794;2024-01-25T04:47:21;155301.81;;;10.61;76.90
5350;BME280;2697;42.144;24.794;2024-01-25T04:49:47;155307.13;;;10.63;76.75
5350;BME280;2697;42.144;24.794;2024-01-25T04:52:12;155311.06;;;10.64;77.17
5350;BME280;2697;42.144;24.794;2024-01-25T04:54:37;155292.59;;;10.57;77.51
5350;BME280;2697;42.144;24.794;2024-01-25T04:57:03;155291.28;;;10.56;77.86
5350;BME280;2697;42.144;24.794;2024-01-25T04:59:32;155286.03;;;10.54;77.98
5350;BME280;2697;42.144;24.794;2024-01-25T05:01:58;155280.78;;;10.52;78.60
5350;BME280;2697;42.144;24.794;2024-01-25T05:04:23;155276.78;;;10.51;79.04
5350;BME280;2697;42.144;24.794;2024-01-25T05:06:48;155257.09;;;10.43;79.62
5350;BME280;2697;42.144;24.794;2024-01-25T05:09:14;155246.53;;;10.39;80.21
5350;BME280;2697;42.144;24.794;2024-01-25T05:11:40;155263.66;;;10.46;80.24
5350;BME280;2697;42.144;24.794;2024-01-25T05:14:06;155288.66;;;10.55;80.12
5350;BME280;2697;42.144;24.794;2024-01-25T05:16:31;155325.50;;;10.70;79.74
5350;BME280;2697;42.144;24.794;2024-01-25T05:18:57;155312.38;;;10.65;80.13
5350;BME280;2697;42.144;24.794;2024-01-25T05:21:22;155322.88;;;10.69;80.14
5350;BME280;2697;42.144;24.794;2024-01-25T05:23:48;155311.06;;;10.64;81.42
5350;BME280;2697;42.144;24.794;2024-01-25T05:26:13;155288.66;;;10.55;81.40
5350;BME280;2697;42.144;24.794;2024-01-25T05:28:39;155315.00;;;10.66;81.14
5350;BME280;2697;42.144;24.794;2024-01-25T05:31:04;155351.91;;;10.80;80.74
5350;BME280;2697;42.144;24.794;2024-01-25T05:33:29;155322.88;;;10.69;81.64
5350;BME280;2697;42.144;24.794;2024-01-25T05:35:55;155307.13;;;10.63;82.80
5350;BME280;2697;42.144;24.794;2024-01-25T05:38:20;155303.16;;;10.61;82.86
5350;BME280;2697;42.144;24.794;2024-01-25T05:40:45;155297.88;;;10.59;83.58
5350;BME280;2697;42.144;24.794;2024-01-25T05:43:11;155317.63;;;10.67;83.63
5350;BME280;2697;42.144;24.794;2024-01-25T05:45:36;155338.69;;;10.75;82.78
5350;BME280;2697;42.144;24.794;2024-01-25T05:48:02;155349.22;;;10.79;83.19
5350;BME280;2697;42.144;24.794;2024-01-25T05:50:27;155372.94;;;10.88;82.96
5350;BME280;2697;42.144;24.794;2024-01-25T05:52:53;155368.97;;;10.87;83.78
5350;BME280;2697;42.144;24.794;2024-01-25T05:55:18;155404.56;;;11.00;82.20
5350;BME280;2697;42.144;24.794;2024-01-25T05:57:44;155396.63;;;10.97;82.38
5350;BME280;2697;42.144;24.794;2024-01-25T06:00:13;155409.81;;;11.02;82.12
5350;BME280;2697;42.144;24.794;2024-01-25T06:02:40;155396.63;;;10.97;82.52
5350;BME280;2697;42.144;24.794;2024-01-25T06:05:06;155416.41;;;11.05;82.28
5350;BME280;2697;42.144;24.794;2024-01-25T06:07:31;155396.63;;;10.97;82.26
5350;BME280;2697;42.144;24.794;2024-01-25T06:09:57;155399.31;;;10.98;82.72
5350;BME280;2697;42.144;24.794;2024-01-25T06:12:22;155392.69;;;10.96;83.27
5350;BME280;2697;42.144;24.794;2024-01-25T06:14:47;155359.78;;;10.83;84.02
5350;BME280;2697;42.144;24.794;2024-01-25T06:17:13;155354.53;;;10.81;84.22
5350;BME280;2697;42.144;24.794;2024-01-25T06:19:39;155330.81;;;10.72;85.05
5350;BME280;2697;42.144;24.794;2024-01-25T06:22:04;155330.81;;;10.72;84.61
5350;BME280;2697;42.144;24.794;2024-01-25T06:24:29;155333.44;;;10.73;85.02
5350;BME280;2697;42.144;24.794;2024-01-25T06:26:55;155280.78;;;10.52;86.02
5350;BME280;2697;42.144;24.794;2024-01-25T06:29:20;155242.56;;;10.38;87.24
5350;BME280;2697;42.144;24.794;2024-01-25T06:31:46;155262.34;;;10.45;88.06
5350;BME280;2697;42.144;24.794;2024-01-25T06:34:11;155243.91;;;10.38;87.72
5350;BME280;2697;42.144;24.794;2024-01-25T06:36:37;155257.09;;;10.43;87.21
5350;BME280;2697;42.144;24.794;2024-01-25T06:39:03;155262.34;;;10.45;86.21
5350;BME280;2697;42.144;24.794;2024-01-25T06:41:31;155280.78;;;10.52;86.04
5350;BME280;2697;42.144;24.794;2024-01-25T06:43:57;155309.75;;;10.64;84.41
5350;BME280;2697;42.144;24.794;2024-01-25T06:46:22;155300.50;;;10.60;84.56
5350;BME280;2697;42.144;24.794;2024-01-25T06:48:49;155318.94;;;10.67;83.57
5350;BME280;2697;42.144;24.794;2024-01-25T06:51:15;155321.56;;;10.68;82.45
5350;BME280;2697;42.144;24.794;2024-01-25T06:53:40;155359.78;;;10.83;80.42
5350;BME280;2697;42.144;24.794;2024-01-25T06:56:06;155403.25;;;11.00;79.40
5350;BME280;2697;42.144;24.794;2024-01-25T06:58:31;155394.00;;;10.96;77.85
5350;BME280;2697;42.144;24.794;2024-01-25T07:00:57;155408.50;;;11.02;77.09
5350;BME280;2697;42.144;24.794;2024-01-25T07:03:22;155445.38;;;11.16;75.45
5350;BME280;2697;42.144;24.794;2024-01-25T07:05:48;155467.78;;;11.25;75.60
5350;BME280;2697;42.144;24.794;2024-01-25T07:08:13;155441.44;;;11.14;75.55
5350;BME280;2697;42.144;24.794;2024-01-25T07:10:42;155436.16;;;11.12;75.62
5350;BME280;2697;42.144;24.794;2024-01-25T07:13:07;155417.72;;;11.05;75.65
5350;BME280;2697;42.144;24.794;2024-01-25T07:15:33;155408.50;;;11.02;76.25
5350;BME280;2697;42.144;24.794;2024-01-25T07:17:58;155417.72;;;11.05;75.53
5350;BME280;2697;42.144;24.794;2024-01-25T07:20:23;155421.66;;;11.07;75.19
5350;BME280;2697;42.144;24.794;2024-01-25T07:22:49;155423.03;;;11.07;75.35
5350;BME280;2697;42.144;24.794;2024-01-25T07:25:14;155411.16;;;11.03;75.71
5350;BME280;2697;42.144;24.794;2024-01-25T07:27:43;155409.81;;;11.02;76.19
5350;BME280;2697;42.144;24.794;2024-01-25T07:30:09;155409.81;;;11.02;76.86
5350;BME280;2697;42.144;24.794;2024-01-25T07:32:35;155388.75;;;10.94;77.67
5350;BME280;2697;42.144;24.794;2024-01-25T07:35:01;155404.56;;;11.00;77.27
5350;BME280;2697;42.144;24.794;2024-01-25T07:37:26;155450.69;;;11.18;76.55
5350;BME280;2697;42.144;24.794;2024-01-25T07:39:51;155455.94;;;11.20;75.96
5350;BME280;2697;42.144;24.794;2024-01-25T07:42:17;155475.72;;;11.28;75.68
5350;BME280;2697;42.144;24.794;2024-01-25T07:44:43;155446.69;;;11.17;75.12
5350;BME280;2697;42.144;24.794;2024-01-25T07:47:08;155433.53;;;11.11;74.79
5350;BME280;2697;42.144;24.794;2024-01-25T07:49:34;155452.00;;;11.19;74.08
5350;BME280;2697;42.144;24.794;2024-01-25T07:51:59;155469.09;;;11.25;73.06
5350;BME280;2697;42.144;24.794;2024-01-25T07:54:24;155487.53;;;11.32;71.98
5350;BME280;2697;42.144;24.794;2024-01-25T07:56:50;155512.56;;;11.42;70.27
5350;BME280;2697;42.144;24.794;2024-01-25T07:59:15;155552.13;;;11.57;69.89
5350;BME280;2697;42.144;24.794;2024-01-25T08:01:41;155557.38;;;11.59;70.05
5350;BME280;2697;42.144;24.794;2024-01-25T08:04:06;155554.75;;;11.58;71.01
5350;BME280;2697;42.144;24.794;2024-01-25T08:06:32;155570.59;;;11.64;70.76
5350;BME280;2697;42.144;24.794;2024-01-25T08:08:57;155575.84;;;11.66;71.23
5350;BME280;2697;42.144;24.794;2024-01-25T08:11:23;155599.56;;;11.76;70.08
5350;BME280;2697;42.144;24.794;2024-01-25T08:13:48;155604.84;;;11.78;70.35
5350;BME280;2697;42.144;24.794;2024-01-25T08:16:14;155604.84;;;11.78;69.01
5350;BME280;2697;42.144;24.794;2024-01-25T08:18:44;155585.06;;;11.70;70.06
5350;BME280;2697;42.144;24.794;2024-01-25T08:21:11;155614.09;;;11.81;69.09
5350;BME280;2697;42.144;24.794;2024-01-25T08:23:37;155641.81;;;11.92;69.01
5350;BME280;2697;42.144;24.794;2024-01-25T08:26:04;155639.13;;;11.91;68.32
5350;BME280;2697;42.144;24.794;2024-01-25T08:28:29;155657.59;;;11.98;68.46
5350;BME280;2697;42.144;24.794;2024-01-25T08:30:54;155703.75;;;12.16;69.30
5350;BME280;2697;42.144;24.794;2024-01-25T08:33:20;155691.91;;;12.11;68.11
5350;BME280;2697;42.144;24.794;2024-01-25T08:35:45;155718.25;;;12.21;67.67
5350;BME280;2697;42.144;24.794;2024-01-25T08:38:11;155715.63;;;12.20;68.61
5350;BME280;2697;42.144;24.794;2024-01-25T08:40:36;155669.47;;;12.03;68.33
5350;BME280;2697;42.144;24.794;2024-01-25T08:43:01;155672.13;;;12.04;68.38
5350;BME280;2697;42.144;24.794;2024-01-25T08:45:27;155680.00;;;12.07;69.49
5350;BME280;2697;42.144;24.794;2024-01-25T08:47:52;155678.69;;;12.06;69.28
5350;BME280;2697;42.144;24.794;2024-01-25T08:50:18;155657.59;;;11.98;68.59
5350;BME280;2697;42.144;24.794;2024-01-25T08:52:43;155677.38;;;12.06;69.58
5350;BME280;2697;42.144;24.794;2024-01-25T08:55:09;155682.66;;;12.08;68.72
5350;BME280;2697;42.144;24.794;2024-01-25T08:57:38;155726.16;;;12.24;68.45
5350;BME280;2697;42.144;24.794;2024-01-25T09:00:05;155716.94;;;12.21;68.50
5350;BME280;2697;42.144;24.794;2024-01-25T09:02:35;155745.94;;;12.32;66.62
5350;BME280;2697;42.144;24.794;2024-01-25T09:05:01;155726.16;;;12.24;65.89
5350;BME280;2697;42.144;24.794;2024-01-25T09:07:27;155730.09;;;12.26;65.53
5350;BME280;2697;42.144;24.794;2024-01-25T09:09:52;155724.84;;;12.24;64.83
5350;BME280;2697;42.144;24.794;2024-01-25T09:12:17;155699.78;;;12.14;64.72
5350;BME280;2697;42.144;24.794;2024-01-25T09:14:44;155694.53;;;12.12;65.81
5350;BME280;2697;42.144;24.794;2024-01-25T09:17:09;155763.09;;;12.39;65.06
5350;BME280;2697;42.144;24.794;2024-01-25T09:19:34;155753.84;;;12.35;64.35
5350;BME280;2697;42.144;24.794;2024-01-25T09:22:00;155747.25;;;12.33;64.03
5350;BME280;2697;42.144;24.794;2024-01-25T09:24:32;155752.53;;;12.35;64.41
5350;BME280;2697;42.144;24.794;2024-01-25T09:27:01;155757.78;;;12.37;64.66
5350;BME280;2697;42.144;24.794;2024-01-25T09:29:27;155790.78;;;12.49;64.57
5350;BME280;2697;42.144;24.794;2024-01-25T09:31:52;155780.22;;;12.45;63.19
5350;BME280;2697;42.144;24.794;2024-01-25T09:34:18;155800.00;;;12.53;64.53
5350;BME280;2697;42.144;24.794;2024-01-25T09:36:45;155742.00;;;12.31;63.93
5350;BME280;2697;42.144;24.794;2024-01-25T09:39:10;155802.63;;;12.54;63.17
5350;BME280;2697;42.144;24.794;2024-01-25T09:41:35;155778.88;;;12.45;62.65
5350;BME280;2697;42.144;24.794;2024-01-25T09:44:01;155823.75;;;12.62;62.23
5350;BME280;2697;42.144;24.794;2024-01-25T09:46:27;155864.63;;;12.78;61.96
5350;BME280;2697;42.144;24.794;2024-01-25T09:48:52;155863.31;;;12.77;61.44
5350;BME280;2697;42.144;24.794;2024-01-25T09:51:18;155900.25;;;12.92;62.13
5350;BME280;2697;42.144;24.794;2024-01-25T09:53:45;155916.09;;;12.98;61.72
5350;BME280;2697;42.144;24.794;2024-01-25T09:56:15;155923.97;;;13.01;61.56
5350;BME280;2697;42.144;24.794;2024-01-25T09:58:43;155877.81;;;12.83;61.79
5350;BME280;2697;42.144;24.794;2024-01-25T10:01:12;155869.91;;;12.80;60.61
5350;BME280;2697;42.144;24.794;2024-01-25T10:03:41;155852.75;;;12.73;60.89
5350;BME280;2697;42.144;24.794;2024-01-25T10:06:08;155867.28;;;12.79;60.40
5350;BME280;2697;42.144;24.794;2024-01-25T10:08:34;155860.69;;;12.76;61.08
5350;BME280;2697;42.144;24.794;2024-01-25T10:11:00;155844.84;;;12.70;60.27
5350;BME280;2697;42.144;24.794;2024-01-25T10:13:28;155858.06;;;12.75;61.50
5350;BME280;2697;42.144;24.794;2024-01-25T10:15:53;155846.16;;;12.71;60.98
5350;BME280;2697;42.144;24.794;2024-01-25T10:18:21;155838.25;;;12.68;60.14
5350;BME280;2697;42.144;24.794;2024-01-25T10:20:47;155839.59;;;12.68;59.42
5350;BME280;2697;42.144;24.794;2024-01-25T10:23:12;155842.22;;;12.69;60.11
5350;BME280;2697;42.144;24.794;2024-01-25T10:25:38;155851.44;;;12.73;60.57
5350;BME280;2697;42.144;24.794;2024-01-25T10:28:07;155898.91;;;12.91;59.66
5350;BME280;2697;42.144;24.794;2024-01-25T10:30:34;155842.22;;;12.69;59.89
5350;BME280;2697;42.144;24.794;2024-01-25T10:33:01;155850.13;;;12.72;59.61
5350;BME280;2697;42.144;24.794;2024-01-25T10:35:26;155836.94;;;12.67;58.93
5350;BME280;2697;42.144;24.794;2024-01-25T10:37:53;155847.47;;;12.71;59.98
5350;BME280;2697;42.144;24.794;2024-01-25T10:40:19;155844.84;;;12.70;58.87
5350;BME280;2697;42.144;24.794;2024-01-25T10:42:45;155877.81;;;12.83;58.83
5350;BME280;2697;42.144;24.794;2024-01-25T10:45:10;155860.69;;;12.76;59.90
5350;BME280;2697;42.144;24.794;2024-01-25T10:47:36;155945.09;;;13.09;59.38
5350;BME280;2697;42.144;24.794;2024-01-25T10:50:03;155978.16;;;13.22;58.44
5350;BME280;2697;42.144;24.794;2024-01-25T10:52:30;155971.53;;;13.19;58.94
5350;BME280;2697;42.144;24.794;2024-01-25T10:54:57;155941.16;;;13.07;57.85
5350;BME280;2697;42.144;24.794;2024-01-25T10:57:23;155877.81;;;12.83;57.49
5350;BME280;2697;42.144;24.794;2024-01-25T10:59:49;155848.78;;;12.72;58.09
5350;BME280;2697;42.144;24.794;2024-01-25T11:02:18;155829.00;;;12.64;58.33
5350;BME280;2697;42.144;24.794;2024-01-25T11:04:53;155834.31;;;12.66;58.21
5350;BME280;2697;42.144;24.794;2024-01-25T11:07:18;155805.25;;;12.55;56.65
5350;BME280;2697;42.144;24.794;2024-01-25T11:09:45;155827.69;;;12.64;56.87
5350;BME280;2697;42.144;24.794;2024-01-25T11:12:13;155829.00;;;12.64;56.54
5350;BME280;2697;42.144;24.794;2024-01-25T11:14:42;155790.78;;;12.49;57.57
5350;BME280;2697;42.144;24.794;2024-01-25T11:17:18;155826.38;;;12.63;56.85
5350;BME280;2697;42.144;24.794;2024-01-25T11:19:43;155757.78;;;12.37;57.58
5350;BME280;2697;42.144;24.794;2024-01-25T11:22:11;155802.63;;;12.54;57.01
5350;BME280;2697;42.144;24.794;2024-01-25T11:24:38;155840.91;;;12.69;56.40
5350;BME280;2697;42.144;24.794;2024-01-25T11:27:04;155813.22;;;12.58;57.26
5350;BME280;2697;42.144;24.794;2024-01-25T11:29:30;155862.00;;;12.77;57.17
5350;BME280;2697;42.144;24.794;2024-01-25T11:31:55;155833.00;;;12.66;57.59
5350;BME280;2697;42.144;24.794;2024-01-25T11:34:22;155862.00;;;12.77;57.84
5350;BME280;2697;42.144;24.794;2024-01-25T11:36:48;155815.84;;;12.59;57.71
5350;BME280;2697;42.144;24.794;2024-01-25T11:39:15;155809.25;;;12.57;58.12
5350;BME280;2697;42.144;24.794;2024-01-25T11:41:42;155801.31;;;12.53;57.55
5350;BME280;2697;42.144;24.794;2024-01-25T11:44:09;155792.09;;;12.50;57.83
5350;BME280;2697;42.144;24.794;2024-01-25T11:46:35;155772.31;;;12.42;58.07
5350;BME280;2697;42.144;24.794;2024-01-25T11:49:01;155848.78;;;12.72;57.64
5350;BME280;2697;42.144;24.794;2024-01-25T11:51:27;155887.06;;;12.87;57.31
5350;BME280;2697;42.144;24.794;2024-01-25T11:53:52;155883.13;;;12.85;57.27
5350;BME280;2697;42.144;24.794;2024-01-25T11:56:21;155942.47;;;13.08;57.17
5350;BME280;2697;42.144;24.794;2024-01-25T11:58:47;155941.16;;;13.07;58.04
5350;BME280;2697;42.144;24.794;2024-01-25T12:01:13;155960.94;;;13.15;57.94
5350;BME280;2697;42.144;24.794;2024-01-25T12:03:40;155937.19;;;13.06;57.79
5350;BME280;2697;42.144;24.794;2024-01-25T12:06:06;155943.78;;;13.08;58.49
5350;BME280;2697;42.144;24.794;2024-01-25T12:08:35;155929.31;;;13.03;57.78
5350;BME280;2697;42.144;24.794;2024-01-25T12:11:10;155902.88;;;12.93;58.55
5350;BME280;2697;42.144;24.794;2024-01-25T12:13:39;155916.09;;;12.98;59.19
5350;BME280;2697;42.144;24.794;2024-01-25T12:16:05;155982.13;;;13.23;58.30
5350;BME280;2697;42.144;24.794;2024-01-25T12:18:31;155960.94;;;13.15;58.02
5350;BME280;2697;42.144;24.794;2024-01-25T12:21:02;155975.47;;;13.21;57.28
5350;BME280;2697;42.144;24.794;2024-01-25T12:23:34;155962.25;;;13.16;57.95
5350;BME280;2697;42.144;24.794;2024-01-25T12:26:04;155905.56;;;12.94;58.93
5350;BME280;2697;42.144;24.794;2024-01-25T12:28:30;155933.25;;;13.04;58.10
5350;BME280;2697;42.144;24.794;2024-01-25T12:30:56;155892.34;;;12.89;57.11
5350;BME280;2697;42.144;24.794;2024-01-25T12:33:21;155881.81;;;12.84;56.55
5350;BME280;2697;42.144;24.794;2024-01-25T12:35:47;155855.38;;;12.74;57.07
5350;BME280;2697;42.144;24.794;2024-01-25T12:38:12;155836.94;;;12.67;56.25
5350;BME280;2697;42.144;24.794;2024-01-25T12:40:38;155843.53;;;12.70;55.46
5350;BME280;2697;42.144;24.794;2024-01-25T12:43:04;155818.47;;;12.60;56.95
5350;BME280;2697;42.144;24.794;2024-01-25T12:45:29;155686.59;;;12.09;56.09
5350;BME280;2697;42.144;24.794;2024-01-25T12:47:55;155788.16;;;12.48;58.00
5350;BME280;2697;42.144;24.794;2024-01-25T12:50:20;155800.00;;;12.53;57.06
5350;BME280;2697;42.144;24.794;2024-01-25T12:52:46;155806.59;;;12.55;58.96
5350;BME280;2697;42.144;24.794;2024-01-25T12:55:11;155768.38;;;12.41;59.00